Accueil
METAR-TAF:

METAR-TAF

Aéroports :

Bauru, São Paulo, Brésil

latitude: 22-19S, longitude: 049-04W, altitude: 590 m

Observation

Le bulletin a été fait il y a 3 heures et 41 minutes, à 03:00 UTC
Vent 11 kt de est/nord-est
Température 20°C
Humidité 83%
Pression 1021 hPa
Visibilité 10 km ou plus
pas de nuages en-dessous de 1500 mètres et pas de cumulonimbus.

METAR: SBBU 240300Z 06011KT CAVOK 20/17 Q1021

Heure: 03:41 (06:41 UTC)

Prévision

Le bulletin a été fait il y a 3 heures et 41 minutes, à 03:00 UTC
Prévision valable du 24 à 06 UTC au 24 à 18 UTC
Vent 6 kt de est
Visibilité 10 km ou plus
pas de nuages en-dessous de 1500 mètres et pas de cumulonimbus.

TAF: SBBU 240300Z 2406/2418 10006KT CAVOK TN15/2410Z TX28/2418Z RMK PDN

Observations et prévisions météorologiques de plus de 4000 aéroports (messages METAR et TAF).

Les stations disponibles sont représentées par des disques jaunes et rouges sur la carte.

Passer la souris dessus pour voir le nom de la station.

Cliquer dessus pour voir les observations et prévisions météorologiques.

Pour changer de carte: cliquez sur les boutons verts avec une croix noire pour zoomer, sur le bouton vert avec un tiret pour effectuer un zoom arrière, ou sur les flèches vertes pour les cartes adjacentes.


METAR-TAF: